sensor_id;sensor_type;location;lat;lon;timestamp;temperature;humidity
913;DHT22;443;51.448;7.028;2023-04-03T00:01:09;11.00;72.40
913;DHT22;443;51.448;7.028;2023-04-03T00:03:36;11.10;73.20
913;DHT22;443;51.448;7.028;2023-04-03T00:06:04;11.10;73.30
913;DHT22;443;51.448;7.028;2023-04-03T00:08:33;11.10;71.60
913;DHT22;443;51.448;7.028;2023-04-03T00:11:01;11.10;73.50
913;DHT22;443;51.448;7.028;2023-04-03T00:13:28;11.10;71.40
913;DHT22;443;51.448;7.028;2023-04-03T00:15:55;11.00;72.90
913;DHT22;443;51.448;7.028;2023-04-03T00:18:21;11.10;74.20
913;DHT22;443;51.448;7.028;2023-04-03T00:20:49;11.10;72.90
913;DHT22;443;51.448;7.028;2023-04-03T00:23:16;11.00;73.30
913;DHT22;443;51.448;7.028;2023-04-03T00:25:44;11.10;73.60
913;DHT22;443;51.448;7.028;2023-04-03T00:28:11;11.10;73.70
913;DHT22;443;51.448;7.028;2023-04-03T00:30:38;11.10;73.50
913;DHT22;443;51.448;7.028;2023-04-03T00:33:05;11.10;73.30
913;DHT22;443;51.448;7.028;2023-04-03T00:35:33;11.00;73.70
913;DHT22;443;51.448;7.028;2023-04-03T00:38:00;11.10;73.60
913;DHT22;443;51.448;7.028;2023-04-03T00:40:27;11.00;73.70
913;DHT22;443;51.448;7.028;2023-04-03T00:43:00;11.10;74.70
913;DHT22;443;51.448;7.028;2023-04-03T00:45:31;11.00;73.40
913;DHT22;443;51.448;7.028;2023-04-03T00:48:00;11.00;74.10
913;DHT22;443;51.448;7.028;2023-04-03T00:50:28;11.00;73.50
913;DHT22;443;51.448;7.028;2023-04-03T00:52:55;11.00;73.70
913;DHT22;443;51.448;7.028;2023-04-03T00:55:23;11.00;73.60
913;DHT22;443;51.448;7.028;2023-04-03T00:57:50;10.90;73.00
913;DHT22;443;51.448;7.028;2023-04-03T01:00:20;11.00;74.00
913;DHT22;443;51.448;7.028;2023-04-03T01:02:48;11.00;73.70
913;DHT22;443;51.448;7.028;2023-04-03T01:05:15;11.00;73.80
913;DHT22;443;51.448;7.028;2023-04-03T01:07:43;11.00;73.60
913;DHT22;443;51.448;7.028;2023-04-03T01:10:12;11.00;73.70
913;DHT22;443;51.448;7.028;2023-04-03T01:12:42;11.00;73.30
913;DHT22;443;51.448;7.028;2023-04-03T01:15:11;11.00;73.80
913;DHT22;443;51.448;7.028;2023-04-03T01:17:41;10.90;73.30
913;DHT22;443;51.448;7.028;2023-04-03T01:20:24;11.00;73.60
913;DHT22;443;51.448;7.028;2023-04-03T01:23:01;10.90;72.90
913;DHT22;443;51.448;7.028;2023-04-03T01:25:33;10.90;72.90
913;DHT22;443;51.448;7.028;2023-04-03T01:28:02;10.90;73.20
913;DHT22;443;51.448;7.028;2023-04-03T01:30:33;10.90;73.90
913;DHT22;443;51.448;7.028;2023-04-03T01:33:02;10.90;73.80
913;DHT22;443;51.448;7.028;2023-04-03T01:35:29;10.90;73.00
913;DHT22;443;51.448;7.028;2023-04-03T01:37:56;10.90;73.60
913;DHT22;443;51.448;7.028;2023-04-03T01:40:22;10.80;73.10
913;DHT22;443;51.448;7.028;2023-04-03T01:42:49;10.80;73.10
913;DHT22;443;51.448;7.028;2023-04-03T01:45:16;10.70;72.70
913;DHT22;443;51.448;7.028;2023-04-03T01:47:43;10.80;74.30
913;DHT22;443;51.448;7.028;2023-04-03T01:50:11;10.80;73.30
913;DHT22;443;51.448;7.028;2023-04-03T01:52:38;10.80;74.30
913;DHT22;443;51.448;7.028;2023-04-03T01:55:05;10.80;73.80
913;DHT22;443;51.448;7.028;2023-04-03T01:57:32;10.80;73.70
913;DHT22;443;51.448;7.028;2023-04-03T01:59:59;10.90;74.30
913;DHT22;443;51.448;7.028;2023-04-03T02:02:26;10.80;74.40
913;DHT22;443;51.448;7.028;2023-04-03T02:04:52;10.90;74.10
913;DHT22;443;51.448;7.028;2023-04-03T02:07:21;10.90;74.00
913;DHT22;443;51.448;7.028;2023-04-03T02:09:48;10.90;73.70
913;DHT22;443;51.448;7.028;2023-04-03T02:12:15;10.80;73.40
913;DHT22;443;51.448;7.028;2023-04-03T02:14:41;10.80;73.90
913;DHT22;443;51.448;7.028;2023-04-03T02:17:08;10.80;74.40
913;DHT22;443;51.448;7.028;2023-04-03T02:19:35;10.80;73.10
913;DHT22;443;51.448;7.028;2023-04-03T02:22:02;10.80;73.10
913;DHT22;443;51.448;7.028;2023-04-03T02:24:30;10.90;74.50
913;DHT22;443;51.448;7.028;2023-04-03T02:26:57;10.90;74.30
913;DHT22;443;51.448;7.028;2023-04-03T02:29:24;10.60;71.40
913;DHT22;443;51.448;7.028;2023-04-03T02:31:50;10.70;74.20
913;DHT22;443;51.448;7.028;2023-04-03T02:34:18;10.80;73.50
913;DHT22;443;51.448;7.028;2023-04-03T02:36:44;10.80;73.60
913;DHT22;443;51.448;7.028;2023-04-03T02:39:11;10.80;74.20
913;DHT22;443;51.448;7.028;2023-04-03T02:41:40;10.80;73.50
913;DHT22;443;51.448;7.028;2023-04-03T02:44:08;10.70;72.50
913;DHT22;443;51.448;7.028;2023-04-03T02:46:36;10.80;74.20
913;DHT22;443;51.448;7.028;2023-04-03T02:49:03;10.80;73.80
913;DHT22;443;51.448;7.028;2023-04-03T02:51:30;10.70;73.00
913;DHT22;443;51.448;7.028;2023-04-03T02:53:57;10.80;73.30
913;DHT22;443;51.448;7.028;2023-04-03T02:56:23;10.70;71.50
913;DHT22;443;51.448;7.028;2023-04-03T02:58:53;10.60;72.40
913;DHT22;443;51.448;7.028;2023-04-03T03:01:20;10.60;73.20
913;DHT22;443;51.448;7.028;2023-04-03T03:03:47;10.60;72.00
913;DHT22;443;51.448;7.028;2023-04-03T03:06:16;10.60;71.40
913;DHT22;443;51.448;7.028;2023-04-03T03:08:43;10.60;71.80
913;DHT22;443;51.448;7.028;2023-04-03T03:11:10;10.60;72.00
913;DHT22;443;51.448;7.028;2023-04-03T03:13:37;10.60;71.80
913;DHT22;443;51.448;7.028;2023-04-03T03:16:06;10.60;71.00
913;DHT22;443;51.448;7.028;2023-04-03T03:18:33;10.80;74.00
913;DHT22;443;51.448;7.028;2023-04-03T03:21:01;10.70;73.30
913;DHT22;443;51.448;7.028;2023-04-03T03:23:29;10.60;70.30
913;DHT22;443;51.448;7.028;2023-04-03T03:25:58;10.50;70.90
913;DHT22;443;51.448;7.028;2023-04-03T03:28:25;10.50;70.10
913;DHT22;443;51.448;7.028;2023-04-03T03:30:53;10.70;72.90
913;DHT22;443;51.448;7.028;2023-04-03T03:33:21;10.70;73.20
913;DHT22;443;51.448;7.028;2023-04-03T03:35:47;10.70;72.70
913;DHT22;443;51.448;7.028;2023-04-03T03:38:14;10.70;73.10
913;DHT22;443;51.448;7.028;2023-04-03T03:40:41;10.70;71.90
913;DHT22;443;51.448;7.028;2023-04-03T03:43:08;10.80;73.70
913;DHT22;443;51.448;7.028;2023-04-03T03:45:34;10.60;70.20
913;DHT22;443;51.448;7.028;2023-04-03T03:48:02;10.60;70.60
913;DHT22;443;51.448;7.028;2023-04-03T03:50:30;10.70;72.00
913;DHT22;443;51.448;7.028;2023-04-03T03:52:56;10.60;70.80
913;DHT22;443;51.448;7.028;2023-04-03T03:55:23;10.60;72.00
913;DHT22;443;51.448;7.028;2023-04-03T03:57:50;10.60;72.40
913;DHT22;443;51.448;7.028;2023-04-03T04:00:17;10.60;71.90
913;DHT22;443;51.448;7.028;2023-04-03T04:02:45;10.60;72.80
913;DHT22;443;51.448;7.028;2023-04-03T04:05:12;10.60;72.90
913;DHT22;443;51.448;7.028;2023-04-03T04:07:40;10.60;70.80
913;DHT22;443;51.448;7.028;2023-04-03T04:10:08;10.60;72.40
913;DHT22;443;51.448;7.028;2023-04-03T04:12:35;10.70;72.10
913;DHT22;443;51.448;7.028;2023-04-03T04:15:02;10.70;72.00
913;DHT22;443;51.448;7.028;2023-04-03T04:17:28;10.70;69.30
913;DHT22;443;51.448;7.028;2023-04-03T04:19:55;10.70;69.70
913;DHT22;443;51.448;7.028;2023-04-03T04:22:22;10.80;70.60
913;DHT22;443;51.448;7.028;2023-04-03T04:24:50;10.90;70.90
913;DHT22;443;51.448;7.028;2023-04-03T04:27:17;10.90;70.10
913;DHT22;443;51.448;7.028;2023-04-03T04:29:44;10.90;70.50
913;DHT22;443;51.448;7.028;2023-04-03T04:32:10;10.90;69.80
913;DHT22;443;51.448;7.028;2023-04-03T04:34:37;10.90;70.20
913;DHT22;443;51.448;7.028;2023-04-03T04:37:04;10.90;70.00
913;DHT22;443;51.448;7.028;2023-04-03T04:39:30;10.90;69.70
913;DHT22;443;51.448;7.028;2023-04-03T04:41:59;10.90;69.70
913;DHT22;443;51.448;7.028;2023-04-03T04:44:26;10.90;69.60
913;DHT22;443;51.448;7.028;2023-04-03T04:46:53;11.00;70.10
913;DHT22;443;51.448;7.028;2023-04-03T04:49:20;11.00;71.00
913;DHT22;443;51.448;7.028;2023-04-03T04:51:47;11.00;70.10
913;DHT22;443;51.448;7.028;2023-04-03T04:54:13;11.00;70.20
913;DHT22;443;51.448;7.028;2023-04-03T04:56:40;11.00;70.60
913;DHT22;443;51.448;7.028;2023-04-03T04:59:08;10.90;69.50
913;DHT22;443;51.448;7.028;2023-04-03T05:01:35;11.00;69.90
913;DHT22;443;51.448;7.028;2023-04-03T05:04:02;11.00;69.70
913;DHT22;443;51.448;7.028;2023-04-03T05:06:28;11.10;70.30
913;DHT22;443;51.448;7.028;2023-04-03T05:08:57;11.10;70.60
913;DHT22;443;51.448;7.028;2023-04-03T05:11:24;11.00;70.40
913;DHT22;443;51.448;7.028;2023-04-03T05:13:51;11.00;70.30
913;DHT22;443;51.448;7.028;2023-04-03T05:16:19;11.00;70.80
913;DHT22;443;51.448;7.028;2023-04-03T05:18:46;11.00;70.70
913;DHT22;443;51.448;7.028;2023-04-03T05:21:13;10.70;68.90
913;DHT22;443;51.448;7.028;2023-04-03T05:23:40;10.80;70.70
913;DHT22;443;51.448;7.028;2023-04-03T05:26:07;10.80;72.00
913;DHT22;443;51.448;7.028;2023-04-03T05:28:34;10.90;70.90
913;DHT22;443;51.448;7.028;2023-04-03T05:31:01;10.80;70.40
913;DHT22;443;51.448;7.028;2023-04-03T05:33:29;10.80;69.70
913;DHT22;443;51.448;7.028;2023-04-03T05:35:57;10.80;71.30
913;DHT22;443;51.448;7.028;2023-04-03T05:38:28;10.90;72.80
913;DHT22;443;51.448;7.028;2023-04-03T05:40:55;10.90;72.60
913;DHT22;443;51.448;7.028;2023-04-03T05:43:22;11.00;72.30
913;DHT22;443;51.448;7.028;2023-04-03T05:45:49;10.80;70.00
913;DHT22;443;51.448;7.028;2023-04-03T05:48:17;10.90;72.60
913;DHT22;443;51.448;7.028;2023-04-03T05:50:45;10.90;71.60
913;DHT22;443;51.448;7.028;2023-04-03T05:53:17;10.90;71.40
913;DHT22;443;51.448;7.028;2023-04-03T05:55:44;10.90;70.60
913;DHT22;443;51.448;7.028;2023-04-03T05:58:11;10.80;70.20
913;DHT22;443;51.448;7.028;2023-04-03T06:00:38;10.90;70.50
913;DHT22;443;51.448;7.028;2023-04-03T06:03:05;10.90;72.40
913;DHT22;443;51.448;7.028;2023-04-03T06:05:32;11.00;70.70
913;DHT22;443;51.448;7.028;2023-04-03T06:08:00;11.20;74.80
913;DHT22;443;51.448;7.028;2023-04-03T06:10:28;11.20;72.40
913;DHT22;443;51.448;7.028;2023-04-03T06:12:55;11.30;73.30
913;DHT22;443;51.448;7.028;2023-04-03T06:15:22;11.30;72.40
913;DHT22;443;51.448;7.028;2023-04-03T06:17:48;11.20;70.90
913;DHT22;443;51.448;7.028;2023-04-03T06:20:15;11.10;70.50
913;DHT22;443;51.448;7.028;2023-04-03T06:22:42;11.10;71.20
913;DHT22;443;51.448;7.028;2023-04-03T06:25:10;11.20;70.40
913;DHT22;443;51.448;7.028;2023-04-03T06:27:38;11.30;73.00
913;DHT22;443;51.448;7.028;2023-04-03T06:30:06;11.20;71.30
913;DHT22;443;51.448;7.028;2023-04-03T06:32:33;11.20;71.30
913;DHT22;443;51.448;7.028;2023-04-03T06:35:00;11.30;71.50
913;DHT22;443;51.448;7.028;2023-04-03T06:37:27;11.20;71.00
913;DHT22;443;51.448;7.028;2023-04-03T06:39:54;11.20;71.40
913;DHT22;443;51.448;7.028;2023-04-03T06:42:23;11.20;70.50
913;DHT22;443;51.448;7.028;2023-04-03T06:44:50;11.20;69.80
913;DHT22;443;51.448;7.028;2023-04-03T06:47:17;11.10;70.00
913;DHT22;443;51.448;7.028;2023-04-03T06:49:44;11.30;72.80
913;DHT22;443;51.448;7.028;2023-04-03T06:52:11;11.40;72.50
913;DHT22;443;51.448;7.028;2023-04-03T06:54:38;11.40;71.10
913;DHT22;443;51.448;7.028;2023-04-03T06:57:06;11.60;72.40
913;DHT22;443;51.448;7.028;2023-04-03T06:59:35;11.50;70.30
913;DHT22;443;51.448;7.028;2023-04-03T07:02:01;11.70;76.40
913;DHT22;443;51.448;7.028;2023-04-03T07:04:28;11.40;69.70
913;DHT22;443;51.448;7.028;2023-04-03T07:06:55;11.50;71.00
913;DHT22;443;51.448;7.028;2023-04-03T07:09:22;11.50;71.20
913;DHT22;443;51.448;7.028;2023-04-03T07:11:48;11.50;70.10
913;DHT22;443;51.448;7.028;2023-04-03T07:14:15;11.70;74.40
913;DHT22;443;51.448;7.028;2023-04-03T07:16:43;11.60;71.30
913;DHT22;443;51.448;7.028;2023-04-03T07:19:10;11.80;70.20
913;DHT22;443;51.448;7.028;2023-04-03T07:21:37;11.80;73.30
913;DHT22;443;51.448;7.028;2023-04-03T07:24:04;11.90;73.30
913;DHT22;443;51.448;7.028;2023-04-03T07:26:31;12.10;72.40
913;DHT22;443;51.448;7.028;2023-04-03T07:28:58;12.10;71.20
913;DHT22;443;51.448;7.028;2023-04-03T07:31:25;12.10;70.90
913;DHT22;443;51.448;7.028;2023-04-03T07:33:53;11.70;69.30
913;DHT22;443;51.448;7.028;2023-04-03T07:36:21;11.60;69.40
913;DHT22;443;51.448;7.028;2023-04-03T07:38:48;11.70;71.40
913;DHT22;443;51.448;7.028;2023-04-03T07:41:17;12.10;75.30
913;DHT22;443;51.448;7.028;2023-04-03T07:43:45;11.90;69.20
913;DHT22;443;51.448;7.028;2023-04-03T07:46:12;12.00;71.10
913;DHT22;443;51.448;7.028;2023-04-03T07:48:39;11.90;71.30
913;DHT22;443;51.448;7.028;2023-04-03T07:51:07;11.80;69.70
913;DHT22;443;51.448;7.028;2023-04-03T07:53:34;12.00;74.70
913;DHT22;443;51.448;7.028;2023-04-03T07:56:01;11.80;69.80
913;DHT22;443;51.448;7.028;2023-04-03T07:58:28;11.90;69.50
913;DHT22;443;51.448;7.028;2023-04-03T08:00:55;11.90;71.90
913;DHT22;443;51.448;7.028;2023-04-03T08:03:22;12.10;70.40
913;DHT22;443;51.448;7.028;2023-04-03T08:05:50;12.30;71.20
913;DHT22;443;51.448;7.028;2023-04-03T08:08:20;12.20;68.70
913;DHT22;443;51.448;7.028;2023-04-03T08:10:49;12.30;73.50
913;DHT22;443;51.448;7.028;2023-04-03T08:13:16;12.30;67.30
913;DHT22;443;51.448;7.028;2023-04-03T08:15:43;12.20;68.10
913;DHT22;443;51.448;7.028;2023-04-03T08:18:10;12.30;72.10
913;DHT22;443;51.448;7.028;2023-04-03T08:20:38;12.60;73.50
913;DHT22;443;51.448;7.028;2023-04-03T08:23:06;12.50;70.00
913;DHT22;443;51.448;7.028;2023-04-03T08:25:34;12.40;68.70
913;DHT22;443;51.448;7.028;2023-04-03T08:28:04;12.40;68.70
913;DHT22;443;51.448;7.028;2023-04-03T08:30:31;12.40;69.00
913;DHT22;443;51.448;7.028;2023-04-03T08:33:00;12.30;68.10
913;DHT22;443;51.448;7.028;2023-04-03T08:35:27;12.40;72.20
913;DHT22;443;51.448;7.028;2023-04-03T08:37:54;12.50;69.90
913;DHT22;443;51.448;7.028;2023-04-03T08:40:22;12.40;67.80
913;DHT22;443;51.448;7.028;2023-04-03T08:42:58;12.50;68.60
913;DHT22;443;51.448;7.028;2023-04-03T08:45:40;12.70;69.90
913;DHT22;443;51.448;7.028;2023-04-03T08:48:13;12.80;75.30
913;DHT22;443;51.448;7.028;2023-04-03T08:50:44;12.90;67.60
913;DHT22;443;51.448;7.028;2023-04-03T08:53:15;12.60;67.30
913;DHT22;443;51.448;7.028;2023-04-03T08:55:44;12.90;72.10
913;DHT22;443;51.448;7.028;2023-04-03T08:58:15;12.80;67.80
913;DHT22;443;51.448;7.028;2023-04-03T09:00:45;12.70;67.30
913;DHT22;443;51.448;7.028;2023-04-03T09:03:14;12.70;68.00
913;DHT22;443;51.448;7.028;2023-04-03T09:05:45;12.90;71.00
913;DHT22;443;51.448;7.028;2023-04-03T09:08:21;12.80;67.20
913;DHT22;443;51.448;7.028;2023-04-03T09:10:49;12.60;65.10
913;DHT22;443;51.448;7.028;2023-04-03T09:13:28;12.90;73.40
913;DHT22;443;51.448;7.028;2023-04-03T09:15:57;12.90;69.70
913;DHT22;443;51.448;7.028;2023-04-03T09:18:26;13.00;68.50
913;DHT22;443;51.448;7.028;2023-04-03T09:20:59;13.00;68.70
913;DHT22;443;51.448;7.028;2023-04-03T09:23:33;13.20;73.90
913;DHT22;443;51.448;7.028;2023-04-03T09:26:02;13.10;69.10
913;DHT22;443;51.448;7.028;2023-04-03T09:28:34;12.90;64.40
913;DHT22;443;51.448;7.028;2023-04-03T09:31:02;13.10;72.70
913;DHT22;443;51.448;7.028;2023-04-03T09:33:34;13.10;66.90
913;DHT22;443;51.448;7.028;2023-04-03T09:36:01;13.00;68.60
913;DHT22;443;51.448;7.028;2023-04-03T09:38:28;13.00;66.60
913;DHT22;443;51.448;7.028;2023-04-03T09:41:05;13.00;64.00
913;DHT22;443;51.448;7.028;2023-04-03T09:43:35;13.10;70.10
913;DHT22;443;51.448;7.028;2023-04-03T09:46:21;13.10;71.60
913;DHT22;443;51.448;7.028;2023-04-03T09:48:51;13.20;70.70
913;DHT22;443;51.448;7.028;2023-04-03T09:51:18;13.40;71.90
913;DHT22;443;51.448;7.028;2023-04-03T09:53:45;13.40;67.70
913;DHT22;443;51.448;7.028;2023-04-03T09:56:20;13.60;73.30
913;DHT22;443;51.448;7.028;2023-04-03T09:58:50;13.80;73.70
913;DHT22;443;51.448;7.028;2023-04-03T10:01:25;13.60;65.60
913;DHT22;443;51.448;7.028;2023-04-03T10:04:04;13.70;69.70
913;DHT22;443;51.448;7.028;2023-04-03T10:06:32;13.60;69.10
913;DHT22;443;51.448;7.028;2023-04-03T10:09:03;13.70;67.60
913;DHT22;443;51.448;7.028;2023-04-03T10:11:30;13.50;67.20
913;DHT22;443;51.448;7.028;2023-04-03T10:14:01;13.60;71.80
913;DHT22;443;51.448;7.028;2023-04-03T10:16:36;13.70;71.00
913;DHT22;443;51.448;7.028;2023-04-03T10:19:28;13.70;70.20
913;DHT22;443;51.448;7.028;2023-04-03T10:21:59;13.70;69.40
913;DHT22;443;51.448;7.028;2023-04-03T10:24:34;13.70;69.40
913;DHT22;443;51.448;7.028;2023-04-03T10:27:07;13.70;68.90
913;DHT22;443;51.448;7.028;2023-04-03T10:29:40;13.40;64.60
913;DHT22;443;51.448;7.028;2023-04-03T10:32:24;13.50;70.90
913;DHT22;443;51.448;7.028;2023-04-03T10:35:00;13.70;68.00
913;DHT22;443;51.448;7.028;2023-04-03T10:37:30;13.60;68.80
913;DHT22;443;51.448;7.028;2023-04-03T10:40:10;13.70;70.40
913;DHT22;443;51.448;7.028;2023-04-03T10:42:44;13.60;69.60
913;DHT22;443;51.448;7.028;2023-04-03T10:45:25;13.70;71.20
913;DHT22;443;51.448;7.028;2023-04-03T10:48:02;13.60;64.10
913;DHT22;443;51.448;7.028;2023-04-03T10:50:39;13.40;64.00
913;DHT22;443;51.448;7.028;2023-04-03T10:53:16;13.40;64.70
913;DHT22;443;51.448;7.028;2023-04-03T10:55:50;13.30;63.70
913;DHT22;443;51.448;7.028;2023-04-03T10:58:21;13.40;69.00
913;DHT22;443;51.448;7.028;2023-04-03T11:00:55;13.40;66.50
913;DHT22;443;51.448;7.028;2023-04-03T11:03:30;13.40;64.00
913;DHT22;443;51.448;7.028;2023-04-03T11:06:00;13.50;71.50
913;DHT22;443;51.448;7.028;2023-04-03T11:08:33;13.60;70.10
913;DHT22;443;51.448;7.028;2023-04-03T11:11:04;13.40;65.40
913;DHT22;443;51.448;7.028;2023-04-03T11:13:35;13.50;69.40
913;DHT22;443;51.448;7.028;2023-04-03T11:16:06;13.50;69.70
913;DHT22;443;51.448;7.028;2023-04-03T11:18:39;13.70;71.50
913;DHT22;443;51.448;7.028;2023-04-03T11:21:10;13.90;72.40
913;DHT22;443;51.448;7.028;2023-04-03T11:23:40;13.70;62.30
913;DHT22;443;51.448;7.028;2023-04-03T11:26:10;13.60;70.70
913;DHT22;443;51.448;7.028;2023-04-03T11:28:37;13.80;67.80
913;DHT22;443;51.448;7.028;2023-04-03T11:31:15;13.70;64.30
913;DHT22;443;51.448;7.028;2023-04-03T11:33:51;13.70;65.10
913;DHT22;443;51.448;7.028;2023-04-03T11:36:24;13.90;71.30
913;DHT22;443;51.448;7.028;2023-04-03T11:38:53;13.90;70.20
913;DHT22;443;51.448;7.028;2023-04-03T11:41:26;13.80;65.40
913;DHT22;443;51.448;7.028;2023-04-03T11:43:58;13.70;68.30
913;DHT22;443;51.448;7.028;2023-04-03T11:46:51;13.80;70.20
913;DHT22;443;51.448;7.028;2023-04-03T11:49:51;13.80;67.80
913;DHT22;443;51.448;7.028;2023-04-03T11:58:28;14.00;72.50
913;DHT22;443;51.448;7.028;2023-04-03T12:01:07;14.00;69.80
913;DHT22;443;51.448;7.028;2023-04-03T12:12:37;14.00;70.00
913;DHT22;443;51.448;7.028;2023-04-03T12:21:18;14.00;68.60
913;DHT22;443;51.448;7.028;2023-04-03T12:24:24;14.10;71.20
913;DHT22;443;51.448;7.028;2023-04-03T12:27:03;14.00;67.60
913;DHT22;443;51.448;7.028;2023-04-03T12:29:38;13.90;63.30
913;DHT22;443;51.448;7.028;2023-04-03T12:32:17;14.00;70.60
913;DHT22;443;51.448;7.028;2023-04-03T12:34:58;14.00;67.90
913;DHT22;443;51.448;7.028;2023-04-03T12:37:40;14.10;69.10
913;DHT22;443;51.448;7.028;2023-04-03T12:40:16;13.90;64.80
913;DHT22;443;51.448;7.028;2023-04-03T12:43:00;13.90;65.00
913;DHT22;443;51.448;7.028;2023-04-03T12:45:41;13.90;66.50
913;DHT22;443;51.448;7.028;2023-04-03T12:48:14;14.00;69.80
913;DHT22;443;51.448;7.028;2023-04-03T12:50:42;14.00;60.30
913;DHT22;443;51.448;7.028;2023-04-03T12:53:13;14.00;67.10
913;DHT22;443;51.448;7.028;2023-04-03T12:55:41;14.00;67.90
913;DHT22;443;51.448;7.028;2023-04-03T12:58:15;14.10;66.40
913;DHT22;443;51.448;7.028;2023-04-03T13:00:44;14.10;66.40
913;DHT22;443;51.448;7.028;2023-04-03T13:03:23;14.20;70.50
913;DHT22;443;51.448;7.028;2023-04-03T13:05:52;14.10;65.00
913;DHT22;443;51.448;7.028;2023-04-03T13:08:20;14.20;70.70
913;DHT22;443;51.448;7.028;2023-04-03T13:10:52;14.30;70.80
913;DHT22;443;51.448;7.028;2023-04-03T13:13:22;14.20;62.70
913;DHT22;443;51.448;7.028;2023-04-03T13:15:50;14.20;66.30
913;DHT22;443;51.448;7.028;2023-04-03T13:18:27;14.20;62.80
913;DHT22;443;51.448;7.028;2023-04-03T13:20:58;14.20;66.40
913;DHT22;443;51.448;7.028;2023-04-03T13:23:26;14.30;70.20
913;DHT22;443;51.448;7.028;2023-04-03T13:25:54;14.30;69.20
913;DHT22;443;51.448;7.028;2023-04-03T13:28:24;14.40;68.60
913;DHT22;443;51.448;7.028;2023-04-03T13:31:01;14.40;64.50
913;DHT22;443;51.448;7.028;2023-04-03T13:33:30;14.50;68.00
913;DHT22;443;51.448;7.028;2023-04-03T13:36:02;14.50;68.50
913;DHT22;443;51.448;7.028;2023-04-03T13:38:31;14.60;67.10
913;DHT22;443;51.448;7.028;2023-04-03T13:41:00;14.60;66.10
913;DHT22;443;51.448;7.028;2023-04-03T13:43:29;14.70;60.20
913;DHT22;443;51.448;7.028;2023-04-03T13:46:04;14.80;66.50
913;DHT22;443;51.448;7.028;2023-04-03T13:48:39;14.80;68.90
913;DHT22;443;51.448;7.028;2023-04-03T13:51:17;14.90;67.40
913;DHT22;443;51.448;7.028;2023-04-03T13:53:48;14.90;66.00
913;DHT22;443;51.448;7.028;2023-04-03T13:56:34;15.00;66.40
913;DHT22;443;51.448;7.028;2023-04-03T13:59:19;15.10;64.00
913;DHT22;443;51.448;7.028;2023-04-03T14:01:50;15.20;64.50
913;DHT22;443;51.448;7.028;2023-04-03T14:04:20;15.20;65.10
913;DHT22;443;51.448;7.028;2023-04-03T14:06:48;15.30;63.30
913;DHT22;443;51.448;7.028;2023-04-03T14:09:17;15.30;66.70
913;DHT22;443;51.448;7.028;2023-04-03T14:11:44;15.50;59.20
913;DHT22;443;51.448;7.028;2023-04-03T14:14:14;15.50;61.30
913;DHT22;443;51.448;7.028;2023-04-03T14:16:44;15.50;65.30
913;DHT22;443;51.448;7.028;2023-04-03T14:19:19;15.50;64.20
913;DHT22;443;51.448;7.028;2023-04-03T14:21:47;15.50;63.80
913;DHT22;443;51.448;7.028;2023-04-03T14:24:14;15.60;66.60
913;DHT22;443;51.448;7.028;2023-04-03T14:26:42;15.60;65.50
913;DHT22;443;51.448;7.028;2023-04-03T14:29:11;15.70;65.40
913;DHT22;443;51.448;7.028;2023-04-03T14:31:38;15.70;65.10
913;DHT22;443;51.448;7.028;2023-04-03T14:34:05;15.70;66.00
913;DHT22;443;51.448;7.028;2023-04-03T14:36:33;15.70;65.90
913;DHT22;443;51.448;7.028;2023-04-03T14:39:01;15.70;66.30
913;DHT22;443;51.448;7.028;2023-04-03T14:41:28;15.80;66.00
913;DHT22;443;51.448;7.028;2023-04-03T14:43:55;15.70;66.10
913;DHT22;443;51.448;7.028;2023-04-03T14:46:25;15.70;66.30
913;DHT22;443;51.448;7.028;2023-04-03T14:48:53;15.80;66.30
913;DHT22;443;51.448;7.028;2023-04-03T14:51:20;15.90;66.10
913;DHT22;443;51.448;7.028;2023-04-03T14:53:48;15.90;65.50
913;DHT22;443;51.448;7.028;2023-04-03T14:56:18;16.00;65.70
913;DHT22;443;51.448;7.028;2023-04-03T14:58:47;16.10;65.20
913;DHT22;443;51.448;7.028;2023-04-03T15:01:16;16.30;65.00
913;DHT22;443;51.448;7.028;2023-04-03T15:03:43;16.40;64.60
913;DHT22;443;51.448;7.028;2023-04-03T15:06:12;16.50;64.00
913;DHT22;443;51.448;7.028;2023-04-03T15:08:39;16.50;63.90
913;DHT22;443;51.448;7.028;2023-04-03T15:11:09;16.60;63.20
913;DHT22;443;51.448;7.028;2023-04-03T15:13:36;16.80;62.90
913;DHT22;443;51.448;7.028;2023-04-03T15:16:04;16.80;63.20
913;DHT22;443;51.448;7.028;2023-04-03T15:18:35;16.80;63.40
913;DHT22;443;51.448;7.028;2023-04-03T15:21:03;16.80;63.20
913;DHT22;443;51.448;7.028;2023-04-03T15:23:30;16.90;62.70
913;DHT22;443;51.448;7.028;2023-04-03T15:25:57;17.10;62.50
913;DHT22;443;51.448;7.028;2023-04-03T15:28:29;17.20;61.90
913;DHT22;443;51.448;7.028;2023-04-03T15:30:56;17.30;62.00
913;DHT22;443;51.448;7.028;2023-04-03T15:33:24;17.30;61.60
913;DHT22;443;51.448;7.028;2023-04-03T15:35:51;17.50;60.90
913;DHT22;443;51.448;7.028;2023-04-03T15:38:17;17.60;60.90
913;DHT22;443;51.448;7.028;2023-04-03T15:40:44;17.70;60.70
913;DHT22;443;51.448;7.028;2023-04-03T15:43:12;17.90;60.20
913;DHT22;443;51.448;7.028;2023-04-03T15:45:41;18.00;59.70
913;DHT22;443;51.448;7.028;2023-04-03T15:48:09;18.10;59.60
913;DHT22;443;51.448;7.028;2023-04-03T15:50:37;18.10;59.50
913;DHT22;443;51.448;7.028;2023-04-03T15:53:04;18.10;59.50
913;DHT22;443;51.448;7.028;2023-04-03T15:55:33;18.10;59.60
913;DHT22;443;51.448;7.028;2023-04-03T15:58:00;18.10;59.50
913;DHT22;443;51.448;7.028;2023-04-03T16:00:28;18.20;59.40
913;DHT22;443;51.448;7.028;2023-04-03T16:02:59;18.20;59.60
913;DHT22;443;51.448;7.028;2023-04-03T16:05:26;18.10;59.40
913;DHT22;443;51.448;7.028;2023-04-03T16:07:53;18.20;59.30
913;DHT22;443;51.448;7.028;2023-04-03T16:10:21;18.30;59.30
913;DHT22;443;51.448;7.028;2023-04-03T16:12:47;18.30;59.30
913;DHT22;443;51.448;7.028;2023-04-03T16:15:14;18.20;59.20
913;DHT22;443;51.448;7.028;2023-04-03T16:17:41;18.00;59.40
913;DHT22;443;51.448;7.028;2023-04-03T16:20:11;17.80;59.80
913;DHT22;443;51.448;7.028;2023-04-03T16:22:40;17.50;60.40
913;DHT22;443;51.448;7.028;2023-04-03T16:25:08;17.30;60.70
913;DHT22;443;51.448;7.028;2023-04-03T16:27:35;17.20;61.60
913;DHT22;443;51.448;7.028;2023-04-03T16:30:02;17.00;62.00
913;DHT22;443;51.448;7.028;2023-04-03T16:32:30;16.90;62.20
913;DHT22;443;51.448;7.028;2023-04-03T16:34:58;16.90;62.60
913;DHT22;443;51.448;7.028;2023-04-03T16:37:26;17.00;61.90
913;DHT22;443;51.448;7.028;2023-04-03T16:39:53;16.90;62.10
913;DHT22;443;51.448;7.028;2023-04-03T16:42:20;16.90;62.00
913;DHT22;443;51.448;7.028;2023-04-03T16:44:46;16.90;62.40
913;DHT22;443;51.448;7.028;2023-04-03T16:47:13;16.90;62.70
913;DHT22;443;51.448;7.028;2023-04-03T16:49:44;16.90;62.60
913;DHT22;443;51.448;7.028;2023-04-03T16:52:12;16.90;63.20
913;DHT22;443;51.448;7.028;2023-04-03T16:54:40;16.70;62.10
913;DHT22;443;51.448;7.028;2023-04-03T16:57:07;16.50;63.80
913;DHT22;443;51.448;7.028;2023-04-03T16:59:34;16.30;63.90
913;DHT22;443;51.448;7.028;2023-04-03T17:02:01;16.20;62.80
913;DHT22;443;51.448;7.028;2023-04-03T17:04:28;16.10;62.90
913;DHT22;443;51.448;7.028;2023-04-03T17:06:55;16.00;63.90
913;DHT22;443;51.448;7.028;2023-04-03T17:09:22;15.90;64.50